sensor_id;sensor_type;location;lat;lon;timestamp;pressure;altitude;pressure_sealevel;temperature;humidity
40490;BME280;26196;52.302;10.572;2023-11-19T00:00:44;100102.97;;;11.02;57.48
40490;BME280;26196;52.302;10.572;2023-11-19T00:04:45;100054.91;;;10.80;57.29
40490;BME280;26196;52.302;10.572;2023-11-19T00:08:45;100073.47;;;10.97;56.88
40490;BME280;26196;52.302;10.572;2023-11-19T00:12:46;100040.09;;;10.79;57.61
40490;BME280;26196;52.302;10.572;2023-11-19T00:16:47;100082.78;;;11.06;57.20
40490;BME280;26196;52.302;10.572;2023-11-19T00:20:47;100016.72;;;10.74;57.26
40490;BME280;26196;52.302;10.572;2023-11-19T00:24:47;99977.88;;;10.62;57.54
40490;BME280;26196;52.302;10.572;2023-11-19T00:28:48;100040.19;;;11.01;57.58
40490;BME280;26196;52.302;10.572;2023-11-19T00:32:48;100059.66;;;11.17;57.76
40490;BME280;26196;52.302;10.572;2023-11-19T00:36:49;100014.91;;;11.00;57.67
40490;BME280;26196;52.302;10.572;2023-11-19T00:40:49;99954.78;;;10.73;58.02
40490;BME280;26196;52.302;10.572;2023-11-19T00:44:53;100000.56;;;11.10;58.08
40490;BME280;26196;52.302;10.572;2023-11-19T00:48:53;99944.84;;;10.83;57.83
40490;BME280;26196;52.302;10.572;2023-11-19T00:52:53;99982.78;;;11.18;58.06
40490;BME280;26196;52.302;10.572;2023-11-19T00:56:54;99902.31;;;10.76;58.29
40490;BME280;26196;52.302;10.572;2023-11-19T01:00:55;99918.41;;;10.89;58.19
40490;BME280;26196;52.302;10.572;2023-11-19T01:04:57;99948.03;;;11.13;58.57
40490;BME280;26196;52.302;10.572;2023-11-19T01:08:58;99971.09;;;11.27;58.64
40490;BME280;26196;52.302;10.572;2023-11-19T01:12:58;99953.91;;;11.20;58.60
40490;BME280;26196;52.302;10.572;2023-11-19T01:16:59;99957.94;;;11.28;58.68
40490;BME280;26196;52.302;10.572;2023-11-19T01:20:59;99872.13;;;10.89;58.89
40490;BME280;26196;52.302;10.572;2023-11-19T01:24:59;99896.16;;;11.01;58.52
40490;BME280;26196;52.302;10.572;2023-11-19T01:29:00;99877.88;;;10.99;58.96
40490;BME280;26196;52.302;10.572;2023-11-19T01:33:01;99903.28;;;11.19;58.90
40490;BME280;26196;52.302;10.572;2023-11-19T01:37:01;99897.69;;;11.28;58.84
40490;BME280;26196;52.302;10.572;2023-11-19T01:41:02;99897.50;;;11.33;58.93
40490;BME280;26196;52.302;10.572;2023-11-19T01:45:03;99829.22;;;10.93;59.11
40490;BME280;26196;52.302;10.572;2023-11-19T01:49:07;99876.84;;;11.25;59.38
40490;BME280;26196;52.302;10.572;2023-11-19T01:53:07;99817.72;;;10.98;58.18
40490;BME280;26196;52.302;10.572;2023-11-19T01:57:08;99752.94;;;10.59;59.13
40490;BME280;26196;52.302;10.572;2023-11-19T02:01:09;99863.38;;;11.34;59.04
40490;BME280;26196;52.302;10.572;2023-11-19T02:05:11;99838.41;;;11.26;59.07
40490;BME280;26196;52.302;10.572;2023-11-19T02:09:12;99771.66;;;10.92;58.90
40490;BME280;26196;52.302;10.572;2023-11-19T02:13:13;99836.22;;;11.37;59.00
40490;BME280;26196;52.302;10.572;2023-11-19T02:17:27;99826.81;;;11.31;58.89
40490;BME280;26196;52.302;10.572;2023-11-19T02:21:27;99816.88;;;11.39;58.18
40490;BME280;26196;52.302;10.572;2023-11-19T02:25:32;99786.25;;;11.20;58.73
40490;BME280;26196;52.302;10.572;2023-11-19T02:29:33;99746.28;;;10.94;58.82
40490;BME280;26196;52.302;10.572;2023-11-19T02:33:38;99817.56;;;11.45;58.32
40490;BME280;26196;52.302;10.572;2023-11-19T02:37:39;99801.88;;;11.43;58.65
40490;BME280;26196;52.302;10.572;2023-11-19T02:41:39;99795.00;;;11.41;58.81
40490;BME280;26196;52.302;10.572;2023-11-19T02:45:39;99702.94;;;10.87;58.76
40490;BME280;26196;52.302;10.572;2023-11-19T02:49:40;99778.44;;;11.40;59.38
40490;BME280;26196;52.302;10.572;2023-11-19T02:53:40;99706.56;;;11.05;58.96
40490;BME280;26196;52.302;10.572;2023-11-19T02:57:41;99770.50;;;11.42;58.77
40490;BME280;26196;52.302;10.572;2023-11-19T03:01:51;99761.00;;;11.39;59.14
40490;BME280;26196;52.302;10.572;2023-11-19T03:05:52;99759.94;;;11.43;59.18
40490;BME280;26196;52.302;10.572;2023-11-19T03:09:52;99571.22;;;10.22;58.70
40490;BME280;26196;52.302;10.572;2023-11-19T03:13:54;99705.44;;;11.31;59.33
40490;BME280;26196;52.302;10.572;2023-11-19T03:17:54;99732.91;;;11.43;59.58
40490;BME280;26196;52.302;10.572;2023-11-19T03:21:54;99717.97;;;11.45;59.22
40490;BME280;26196;52.302;10.572;2023-11-19T03:25:55;99635.84;;;11.05;58.99
40490;BME280;26196;52.302;10.572;2023-11-19T03:29:55;99647.63;;;11.15;59.02
40490;BME280;26196;52.302;10.572;2023-11-19T03:33:55;99680.97;;;11.32;59.11
40490;BME280;26196;52.302;10.572;2023-11-19T03:37:56;99695.03;;;11.50;58.96
40490;BME280;26196;52.302;10.572;2023-11-19T03:41:56;99653.66;;;11.37;59.39
40490;BME280;26196;52.302;10.572;2023-11-19T03:45:56;99593.94;;;11.05;58.96
40490;BME280;26196;52.302;10.572;2023-11-19T03:49:57;99598.19;;;11.07;59.28
40490;BME280;26196;52.302;10.572;2023-11-19T03:53:57;99619.41;;;11.22;59.40
40490;BME280;26196;52.302;10.572;2023-11-19T03:57:57;99652.81;;;11.37;59.15
40490;BME280;26196;52.302;10.572;2023-11-19T04:01:58;99678.34;;;11.52;59.79
40490;BME280;26196;52.302;10.572;2023-11-19T04:06:00;99672.94;;;11.55;59.51
40490;BME280;26196;52.302;10.572;2023-11-19T04:10:01;99683.28;;;11.58;59.48
40490;BME280;26196;52.302;10.572;2023-11-19T04:14:02;99602.97;;;11.18;59.79
40490;BME280;26196;52.302;10.572;2023-11-19T04:18:02;99573.44;;;11.14;59.39
40490;BME280;26196;52.302;10.572;2023-11-19T04:22:03;99475.81;;;10.52;59.74
40490;BME280;26196;52.302;10.572;2023-11-19T04:26:03;99650.84;;;11.61;59.73
40490;BME280;26196;52.302;10.572;2023-11-19T04:30:05;99588.13;;;11.19;59.53
40490;BME280;26196;52.302;10.572;2023-11-19T04:34:10;99656.16;;;11.59;59.80
40490;BME280;26196;52.302;10.572;2023-11-19T04:38:11;99643.13;;;11.58;59.40
40490;BME280;26196;52.302;10.572;2023-11-19T04:42:11;99647.94;;;11.67;59.81
40490;BME280;26196;52.302;10.572;2023-11-19T04:46:12;99587.78;;;11.26;60.20
40490;BME280;26196;52.302;10.572;2023-11-19T04:50:12;99585.50;;;11.19;59.99
40490;BME280;26196;52.302;10.572;2023-11-19T04:54:13;99618.25;;;11.48;59.37
40490;BME280;26196;52.302;10.572;2023-11-19T04:58:14;99587.66;;;11.29;59.77
40490;BME280;26196;52.302;10.572;2023-11-19T05:02:14;99572.25;;;11.22;59.54
40490;BME280;26196;52.302;10.572;2023-11-19T05:06:16;99644.19;;;11.73;60.14
40490;BME280;26196;52.302;10.572;2023-11-19T05:10:16;99631.31;;;11.68;59.91
40490;BME280;26196;52.302;10.572;2023-11-19T05:14:16;99575.44;;;11.28;60.09
40490;BME280;26196;52.302;10.572;2023-11-19T05:18:18;99591.31;;;11.44;59.94
40490;BME280;26196;52.302;10.572;2023-11-19T05:22:19;99573.31;;;11.36;60.40
40490;BME280;26196;52.302;10.572;2023-11-19T05:26:21;99585.38;;;11.41;60.01
40490;BME280;26196;52.302;10.572;2023-11-19T05:30:22;99638.81;;;11.76;60.70
40490;BME280;26196;52.302;10.572;2023-11-19T05:34:23;99623.50;;;11.67;60.16
40490;BME280;26196;52.302;10.572;2023-11-19T05:38:23;99551.31;;;11.41;59.95
40490;BME280;26196;52.302;10.572;2023-11-19T05:42:24;99565.84;;;11.48;60.33
40490;BME280;26196;52.302;10.572;2023-11-19T05:46:24;99497.78;;;11.08;61.27
40490;BME280;26196;52.302;10.572;2023-11-19T05:50:27;99539.06;;;11.41;61.30
40490;BME280;26196;52.302;10.572;2023-11-19T05:54:27;99511.94;;;11.23;60.76
40490;BME280;26196;52.302;10.572;2023-11-19T05:58:27;99594.31;;;11.74;60.69
40490;BME280;26196;52.302;10.572;2023-11-19T06:02:32;99579.63;;;11.70;60.44
40490;BME280;26196;52.302;10.572;2023-11-19T06:06:33;99620.69;;;11.90;60.41
40490;BME280;26196;52.302;10.572;2023-11-19T06:10:34;99566.47;;;11.53;60.12
40490;BME280;26196;52.302;10.572;2023-11-19T06:14:34;99619.72;;;11.93;60.58
40490;BME280;26196;52.302;10.572;2023-11-19T06:18:36;99628.34;;;11.95;59.99
40490;BME280;26196;52.302;10.572;2023-11-19T06:22:36;99610.84;;;11.95;60.24
40490;BME280;26196;52.302;10.572;2023-11-19T06:26:37;99615.09;;;11.98;60.33
40490;BME280;26196;52.302;10.572;2023-11-19T06:30:37;99545.22;;;11.59;60.39
40490;BME280;26196;52.302;10.572;2023-11-19T06:34:37;99531.34;;;11.57;60.38
40490;BME280;26196;52.302;10.572;2023-11-19T06:38:38;99533.81;;;11.60;60.69
40490;BME280;26196;52.302;10.572;2023-11-19T06:42:38;99607.81;;;12.04;60.43
40490;BME280;26196;52.302;10.572;2023-11-19T06:46:39;99562.69;;;11.77;60.61
40490;BME280;26196;52.302;10.572;2023-11-19T06:50:40;99575.19;;;11.72;60.42
40490;BME280;26196;52.302;10.572;2023-11-19T06:54:40;99551.03;;;11.66;60.81
40490;BME280;26196;52.302;10.572;2023-11-19T06:58:41;99554.50;;;11.66;60.56
40490;BME280;26196;52.302;10.572;2023-11-19T07:02:41;99620.97;;;12.03;60.79
40490;BME280;26196;52.302;10.572;2023-11-19T07:06:43;99561.91;;;11.75;60.60
40490;BME280;26196;52.302;10.572;2023-11-19T07:10:43;99638.81;;;12.14;60.71
40490;BME280;26196;52.302;10.572;2023-11-19T07:14:43;99633.66;;;12.12;60.47
40490;BME280;26196;52.302;10.572;2023-11-19T07:18:44;99570.88;;;11.71;60.57
40490;BME280;26196;52.302;10.572;2023-11-19T07:22:44;99588.66;;;11.83;60.22
40490;BME280;26196;52.302;10.572;2023-11-19T07:26:47;99645.75;;;12.15;60.42
40490;BME280;26196;52.302;10.572;2023-11-19T07:30:48;99579.56;;;11.72;61.01
40490;BME280;26196;52.302;10.572;2023-11-19T07:34:48;99590.06;;;11.91;60.11
40490;BME280;26196;52.302;10.572;2023-11-19T07:38:49;99648.16;;;12.19;60.80
40490;BME280;26196;52.302;10.572;2023-11-19T07:42:50;99630.91;;;12.15;61.82
40490;BME280;26196;52.302;10.572;2023-11-19T07:46:51;99640.16;;;12.22;60.97
40490;BME280;26196;52.302;10.572;2023-11-19T07:50:54;99639.25;;;12.23;60.48
40490;BME280;26196;52.302;10.572;2023-11-19T07:54:54;99584.97;;;11.88;60.51
40490;BME280;26196;52.302;10.572;2023-11-19T07:58:55;99642.88;;;12.21;61.09
40490;BME280;26196;52.302;10.572;2023-11-19T08:02:55;99613.53;;;11.94;61.34
40490;BME280;26196;52.302;10.572;2023-11-19T08:06:56;99628.63;;;12.08;61.00
40490;BME280;26196;52.302;10.572;2023-11-19T08:10:56;99677.25;;;12.34;60.95
40490;BME280;26196;52.302;10.572;2023-11-19T08:14:57;99679.78;;;12.35;61.17
40490;BME280;26196;52.302;10.572;2023-11-19T08:18:58;99638.13;;;12.10;62.21
40490;BME280;26196;52.302;10.572;2023-11-19T08:22:59;99669.88;;;12.23;62.22
40490;BME280;26196;52.302;10.572;2023-11-19T08:26:59;99658.94;;;12.32;61.99
40490;BME280;26196;52.302;10.572;2023-11-19T08:31:00;99665.44;;;12.42;62.23
40490;BME280;26196;52.302;10.572;2023-11-19T08:35:00;99645.59;;;12.37;63.34
40490;BME280;26196;52.302;10.572;2023-11-19T08:39:01;99660.97;;;12.44;63.04
40490;BME280;26196;52.302;10.572;2023-11-19T08:43:01;99666.59;;;12.37;62.77
40490;BME280;26196;52.302;10.572;2023-11-19T08:47:01;99608.56;;;12.07;62.64
40490;BME280;26196;52.302;10.572;2023-11-19T08:51:02;99658.50;;;12.41;63.65
40490;BME280;26196;52.302;10.572;2023-11-19T08:55:04;99662.91;;;12.41;63.65
40490;BME280;26196;52.302;10.572;2023-11-19T08:59:05;99698.88;;;12.56;63.30
40490;BME280;26196;52.302;10.572;2023-11-19T09:03:06;99701.44;;;12.58;62.89
40490;BME280;26196;52.302;10.572;2023-11-19T09:07:06;99697.88;;;12.59;63.97
40490;BME280;26196;52.302;10.572;2023-11-19T09:11:08;99708.31;;;12.60;63.90
40490;BME280;26196;52.302;10.572;2023-11-19T09:15:09;99704.66;;;12.64;63.67
40490;BME280;26196;52.302;10.572;2023-11-19T09:19:10;99656.53;;;12.27;64.03
40490;BME280;26196;52.302;10.572;2023-11-19T09:23:11;99698.03;;;12.56;63.54
40490;BME280;26196;52.302;10.572;2023-11-19T09:27:12;99646.19;;;12.24;63.65
40490;BME280;26196;52.302;10.572;2023-11-19T09:31:13;99660.72;;;12.32;64.37
40490;BME280;26196;52.302;10.572;2023-11-19T09:35:14;99723.56;;;12.71;63.84
40490;BME280;26196;52.302;10.572;2023-11-19T09:39:16;99670.91;;;12.38;63.93
40490;BME280;26196;52.302;10.572;2023-11-19T09:43:18;99664.13;;;12.34;63.85
40490;BME280;26196;52.302;10.572;2023-11-19T09:47:19;99725.97;;;12.76;64.37
40490;BME280;26196;52.302;10.572;2023-11-19T09:51:20;99674.94;;;12.45;64.47
40490;BME280;26196;52.302;10.572;2023-11-19T09:55:21;99669.84;;;12.42;64.85
40490;BME280;26196;52.302;10.572;2023-11-19T09:59:22;99733.75;;;12.77;64.63
40490;BME280;26196;52.302;10.572;2023-11-19T10:03:23;99670.69;;;12.42;64.51
40490;BME280;26196;52.302;10.572;2023-11-19T10:07:24;99628.66;;;12.25;65.21
40490;BME280;26196;52.302;10.572;2023-11-19T10:11:25;99719.72;;;12.78;64.24
40490;BME280;26196;52.302;10.572;2023-11-19T10:15:25;99664.00;;;12.54;64.76
40490;BME280;26196;52.302;10.572;2023-11-19T10:19:26;99729.69;;;12.89;64.03
40490;BME280;26196;52.302;10.572;2023-11-19T10:23:28;99656.41;;;12.48;64.79
40490;BME280;26196;52.302;10.572;2023-11-19T10:27:28;99692.91;;;12.72;65.39
40490;BME280;26196;52.302;10.572;2023-11-19T10:31:28;99665.53;;;12.58;65.67
40490;BME280;26196;52.302;10.572;2023-11-19T10:35:29;99661.06;;;12.60;65.90
40490;BME280;26196;52.302;10.572;2023-11-19T10:39:51;99729.00;;;13.03;65.50
40490;BME280;26196;52.302;10.572;2023-11-19T10:43:54;99632.78;;;12.48;66.91
40490;BME280;26196;52.302;10.572;2023-11-19T10:47:55;99714.41;;;12.97;67.04
40490;BME280;26196;52.302;10.572;2023-11-19T10:51:56;99726.16;;;13.07;67.11
40490;BME280;26196;52.302;10.572;2023-11-19T10:55:57;99725.22;;;13.08;67.14
40490;BME280;26196;52.302;10.572;2023-11-19T11:00:01;99666.97;;;12.83;66.85
40490;BME280;26196;52.302;10.572;2023-11-19T11:04:03;99713.56;;;13.14;67.16
40490;BME280;26196;52.302;10.572;2023-11-19T11:08:06;99644.56;;;12.76;67.68
40490;BME280;26196;52.302;10.572;2023-11-19T11:12:09;99718.56;;;13.19;68.08
40490;BME280;26196;52.302;10.572;2023-11-19T11:16:10;99704.13;;;13.10;67.57
40490;BME280;26196;52.302;10.572;2023-11-19T11:20:11;99639.78;;;12.84;67.54
40490;BME280;26196;52.302;10.572;2023-11-19T11:37:21;99660.00;;;12.99;67.89
40490;BME280;26196;52.302;10.572;2023-11-19T11:41:26;99642.19;;;12.88;67.63
40490;BME280;26196;52.302;10.572;2023-11-19T11:45:38;99706.91;;;13.24;68.03
40490;BME280;26196;52.302;10.572;2023-11-19T11:49:39;99667.72;;;13.02;67.41
40490;BME280;26196;52.302;10.572;2023-11-19T11:53:41;99719.53;;;13.35;66.83
40490;BME280;26196;52.302;10.572;2023-11-19T11:57:41;99660.00;;;12.99;66.56
40490;BME280;26196;52.302;10.572;2023-11-19T12:01:57;99734.16;;;13.41;67.19
40490;BME280;26196;52.302;10.572;2023-11-19T12:05:58;99712.56;;;13.34;67.03
40490;BME280;26196;52.302;10.572;2023-11-19T12:10:06;99658.53;;;13.11;66.85
40490;BME280;26196;52.302;10.572;2023-11-19T12:14:08;99655.84;;;13.12;67.17
40490;BME280;26196;52.302;10.572;2023-11-19T12:18:08;99638.44;;;13.10;66.88
40490;BME280;26196;52.302;10.572;2023-11-19T12:22:11;99650.91;;;13.06;66.88
40490;BME280;26196;52.302;10.572;2023-11-19T12:26:41;99709.00;;;13.52;67.00
40490;BME280;26196;52.302;10.572;2023-11-19T12:30:43;99699.66;;;13.47;66.55
40490;BME280;26196;52.302;10.572;2023-11-19T12:34:45;99685.88;;;13.42;66.66
40490;BME280;26196;52.302;10.572;2023-11-19T12:38:46;99716.13;;;13.50;66.55
40490;BME280;26196;52.302;10.572;2023-11-19T12:42:47;99685.59;;;13.30;66.89
40490;BME280;26196;52.302;10.572;2023-11-19T12:47:02;99709.00;;;13.52;66.72
40490;BME280;26196;52.302;10.572;2023-11-19T12:51:03;99727.22;;;13.55;66.77
40490;BME280;26196;52.302;10.572;2023-11-19T12:55:05;99717.66;;;13.54;66.76
40490;BME280;26196;52.302;10.572;2023-11-19T12:59:12;99714.84;;;13.57;66.06
40490;BME280;26196;52.302;10.572;2023-11-19T13:03:29;99707.75;;;13.60;66.63
40490;BME280;26196;52.302;10.572;2023-11-19T13:07:29;99712.00;;;13.62;66.71
40490;BME280;26196;52.302;10.572;2023-11-19T13:11:33;99702.81;;;13.53;66.50
40490;BME280;26196;52.302;10.572;2023-11-19T13:15:34;99691.34;;;13.54;65.93
40490;BME280;26196;52.302;10.572;2023-11-19T13:19:35;99669.88;;;13.46;65.34
40490;BME280;26196;52.302;10.572;2023-11-19T13:23:35;99703.88;;;13.67;65.70
40490;BME280;26196;52.302;10.572;2023-11-19T13:27:36;99709.03;;;13.68;65.48
40490;BME280;26196;52.302;10.572;2023-11-19T13:31:36;99690.19;;;13.60;65.60
40490;BME280;26196;52.302;10.572;2023-11-19T13:35:37;99683.06;;;13.62;65.49
40490;BME280;26196;52.302;10.572;2023-11-19T13:39:42;99630.31;;;13.32;64.98
40490;BME280;26196;52.302;10.572;2023-11-19T13:43:42;99636.19;;;13.37;65.22
40490;BME280;26196;52.302;10.572;2023-11-19T13:47:43;99630.69;;;13.42;65.24
40490;BME280;26196;52.302;10.572;2023-11-19T13:51:44;99690.16;;;13.77;65.51
40490;BME280;26196;52.302;10.572;2023-11-19T13:55:45;99618.72;;;13.36;65.12
40490;BME280;26196;52.302;10.572;2023-11-19T13:59:46;99626.44;;;13.39;65.18
40490;BME280;26196;52.302;10.572;2023-11-19T14:03:46;99603.03;;;13.34;64.27
40490;BME280;26196;52.302;10.572;2023-11-19T14:07:46;99672.47;;;13.64;64.46
40490;BME280;26196;52.302;10.572;2023-11-19T14:11:51;99692.69;;;13.79;64.39
40490;BME280;26196;52.302;10.572;2023-11-19T14:15:52;99622.19;;;13.37;64.21
40490;BME280;26196;52.302;10.572;2023-11-19T14:19:52;99682.66;;;13.70;63.67
40490;BME280;26196;52.302;10.572;2023-11-19T14:23:53;99624.81;;;13.37;64.49
40490;BME280;26196;52.302;10.572;2023-11-19T14:27:53;99634.09;;;13.44;64.11
40490;BME280;26196;52.302;10.572;2023-11-19T14:31:53;99692.59;;;13.81;63.93
40490;BME280;26196;52.302;10.572;2023-11-19T14:35:54;99684.97;;;13.76;65.04
40490;BME280;26196;52.302;10.572;2023-11-19T14:39:54;99626.75;;;13.50;64.63
40490;BME280;26196;52.302;10.572;2023-11-19T14:43:55;99688.78;;;13.86;65.26
40490;BME280;26196;52.302;10.572;2023-11-19T14:47:55;99696.63;;;13.88;65.19
40490;BME280;26196;52.302;10.572;2023-11-19T14:51:55;99653.75;;;13.70;65.33
40490;BME280;26196;52.302;10.572;2023-11-19T14:55:56;99628.50;;;13.50;65.72
40490;BME280;26196;52.302;10.572;2023-11-19T14:59:56;99690.50;;;13.87;65.41
40490;BME280;26196;52.302;10.572;2023-11-19T15:03:57;99692.88;;;13.92;65.36
40490;BME280;26196;52.302;10.572;2023-11-19T15:07:57;99665.47;;;13.80;65.31
40490;BME280;26196;52.302;10.572;2023-11-19T15:11:58;99688.31;;;13.95;65.23
40490;BME280;26196;52.302;10.572;2023-11-19T15:15:59;99696.88;;;13.99;64.70
40490;BME280;26196;52.302;10.572;2023-11-19T15:20:00;99697.81;;;13.98;65.00
40490;BME280;26196;52.302;10.572;2023-11-19T15:24:01;99630.47;;;13.62;64.34
40490;BME280;26196;52.302;10.572;2023-11-19T15:28:04;99629.81;;;13.59;64.56
40490;BME280;26196;52.302;10.572;2023-11-19T15:32:06;99636.50;;;13.64;63.96
40490;BME280;26196;52.302;10.572;2023-11-19T15:36:08;99679.81;;;13.90;64.31
40490;BME280;26196;52.302;10.572;2023-11-19T15:40:08;99663.84;;;13.77;64.70
40490;BME280;26196;52.302;10.572;2023-11-19T15:44:09;99694.94;;;14.03;64.69
40490;BME280;26196;52.302;10.572;2023-11-19T15:48:10;99696.63;;;14.04;64.43
40490;BME280;26196;52.302;10.572;2023-11-19T15:52:14;99621.56;;;13.65;64.36
40490;BME280;26196;52.302;10.572;2023-11-19T15:56:15;99695.50;;;14.08;63.66
40490;BME280;26196;52.302;10.572;2023-11-19T16:00:15;99610.38;;;13.61;64.15
40490;BME280;26196;52.302;10.572;2023-11-19T16:04:17;99632.63;;;13.71;63.72
40490;BME280;26196;52.302;10.572;2023-11-19T16:08:17;99700.72;;;14.09;63.76
40490;BME280;26196;52.302;10.572;2023-11-19T16:12:17;99702.56;;;14.07;63.90
40490;BME280;26196;52.302;10.572;2023-11-19T16:16:18;99648.06;;;13.77;63.47
40490;BME280;26196;52.302;10.572;2023-11-19T16:20:18;99666.84;;;13.87;63.85
40490;BME280;26196;52.302;10.572;2023-11-19T16:24:19;99657.56;;;13.80;63.84
40490;BME280;26196;52.302;10.572;2023-11-19T16:28:19;99716.84;;;14.19;64.27
40490;BME280;26196;52.302;10.572;2023-11-19T16:32:19;99733.31;;;14.22;64.49
40490;BME280;26196;52.302;10.572;2023-11-19T16:36:20;99671.41;;;13.84;64.39
40490;BME280;26196;52.302;10.572;2023-11-19T16:40:20;99724.81;;;14.17;63.85
40490;BME280;26196;52.302;10.572;2023-11-19T16:44:21;99666.38;;;13.79;65.15
40490;BME280;26196;52.302;10.572;2023-11-19T16:48:21;99729.06;;;14.20;65.21
40490;BME280;26196;52.302;10.572;2023-11-19T16:52:22;99673.19;;;13.83;64.61
40490;BME280;26196;52.302;10.572;2023-11-19T16:56:22;99738.69;;;14.21;65.06
40490;BME280;26196;52.302;10.572;2023-11-19T17:00:22;99669.94;;;13.78;65.32
40490;BME280;26196;52.302;10.572;2023-11-19T17:04:23;99719.06;;;14.11;64.39
40490;BME280;26196;52.302;10.572;2023-11-19T17:08:24;99744.69;;;14.23;65.25
40490;BME280;26196;52.302;10.572;2023-11-19T17:12:25;99678.28;;;13.86;64.65
40490;BME280;26196;52.302;10.572;2023-11-19T17:16:25;99680.31;;;13.81;64.87
40490;BME280;26196;52.302;10.572;2023-11-19T17:20:26;99740.38;;;14.22;64.70
40490;BME280;26196;52.302;10.572;2023-11-19T17:24:29;99744.53;;;14.26;64.76
40490;BME280;26196;52.302;10.572;2023-11-19T17:28:29;99684.31;;;13.88;64.23
40490;BME280;26196;52.302;10.572;2023-11-19T17:32:30;99685.75;;;13.94;63.93
40490;BME280;26196;52.302;10.572;2023-11-19T17:36:34;99677.25;;;13.89;64.41
40490;BME280;26196;52.302;10.572;2023-11-19T17:40:34;99686.59;;;13.94;64.11
40490;BME280;26196;52.302;10.572;2023-11-19T17:44:34;99732.88;;;14.14;64.48
40490;BME280;26196;52.302;10.572;2023-11-19T17:48:35;99731.09;;;14.15;65.03
40490;BME280;26196;52.302;10.572;2023-11-19T17:52:36;99748.69;;;14.30;65.13
40490;BME280;26196;52.302;10.572;2023-11-19T17:56:36;99744.38;;;14.29;65.14
40490;BME280;26196;52.302;10.572;2023-11-19T18:00:39;99743.25;;;14.33;65.08
40490;BME280;26196;52.302;10.572;2023-11-19T18:04:40;99687.13;;;14.01;65.28
40490;BME280;26196;52.302;10.572;2023-11-19T18:08:40;99744.88;;;14.36;64.89
40490;BME280;26196;52.302;10.572;2023-11-19T18:12:40;99744.78;;;14.37;65.03
40490;BME280;26196;52.302;10.572;2023-11-19T18:16:41;99703.16;;;14.12;65.33
40490;BME280;26196;52.302;10.572;2023-11-19T18:20:44;99734.50;;;14.33;65.16
40490;BME280;26196;52.302;10.572;2023-11-19T18:24:44;99734.34;;;14.36;65.09
40490;BME280;26196;52.302;10.572;2023-11-19T18:28:44;99750.06;;;14.37;64.97
40490;BME280;26196;52.302;10.572;2023-11-19T18:32:47;99675.06;;;13.97;65.27
40490;BME280;26196;52.302;10.572;2023-11-19T18:36:47;99702.16;;;14.15;65.05
40490;BME280;26196;52.302;10.572;2023-11-19T18:40:48;99698.50;;;14.17;65.38
40490;BME280;26196;52.302;10.572;2023-11-19T18:44:48;99722.38;;;14.30;64.93
40490;BME280;26196;52.302;10.572;2023-11-19T18:48:48;99743.53;;;14.44;64.68
40490;BME280;26196;52.302;10.572;2023-11-19T18:52:49;99659.53;;;13.92;64.75
40490;BME280;26196;52.302;10.572;2023-11-19T18:56:49;99680.78;;;14.05;65.41
40490;BME280;26196;52.302;10.572;2023-11-19T19:00:52;99741.75;;;14.45;64.96
40490;BME280;26196;52.302;10.572;2023-11-19T19:04:54;99724.75;;;14.35;64.52
40490;BME280;26196;52.302;10.572;2023-11-19T19:08:54;99739.28;;;14.42;64.19
40490;BME280;26196;52.302;10.572;2023-11-19T19:12:55;99664.28;;;14.01;64.63
40490;BME280;26196;52.302;10.572;2023-11-19T19:16:55;99743.53;;;14.44;64.82
40490;BME280;26196;52.302;10.572;2023-11-19T19:20:56;99725.41;;;14.38;64.72
40490;BME280;26196;52.302;10.572;2023-11-19T19:24:56;99695.63;;;14.22;63.99
40490;BME280;26196;52.302;10.572;2023-11-19T19:28:57;99701.66;;;14.24;64.29
40490;BME280;26196;52.302;10.572;2023-11-19T19:32:58;99741.63;;;14.47;64.07
40490;BME280;26196;52.302;10.572;2023-11-19T19:36:58;99746.16;;;14.44;64.46
40490;BME280;26196;52.302;10.572;2023-11-19T19:40:59;99754.06;;;14.44;64.57
40490;BME280;26196;52.302;10.572;2023-11-19T19:45:07;99697.13;;;14.10;64.49
40490;BME280;26196;52.302;10.572;2023-11-19T19:49:12;99738.75;;;14.35;63.95
40490;BME280;26196;52.302;10.572;2023-11-19T19:53:13;99695.69;;;14.05;64.04
40490;BME280;26196;52.302;10.572;2023-11-19T19:57:13;99762.88;;;14.43;64.10
40490;BME280;26196;52.302;10.572;2023-11-19T20:01:14;99694.84;;;14.04;63.67
40490;BME280;26196;52.302;10.572;2023-11-19T20:05:15;99688.97;;;13.99;63.63
40490;BME280;26196;52.302;10.572;2023-11-19T20:09:15;99760.34;;;14.42;63.78
40490;BME280;26196;52.302;10.572;2023-11-19T20:13:16;99756.84;;;14.41;63.96
40490;BME280;26196;52.302;10.572;2023-11-19T20:17:17;99699.69;;;14.12;63.57
40490;BME280;26196;52.302;10.572;2023-11-19T20:21:19;99730.59;;;14.24;63.68
40490;BME280;26196;52.302;10.572;2023-11-19T20:25:19;99682.63;;;14.03;63.54
40490;BME280;26196;52.302;10.572;2023-11-19T20:29:20;99673.19;;;13.99;63.37
40490;BME280;26196;52.302;10.572;2023-11-19T20:33:20;99680.66;;;14.07;64.08
40490;BME280;26196;52.302;10.572;2023-11-19T20:37:20;99746.91;;;14.47;64.83
40490;BME280;26196;52.302;10.572;2023-11-19T20:41:21;99684.06;;;14.09;64.95
40490;BME280;26196;52.302;10.572;2023-11-19T20:45:21;99654.94;;;13.96;64.91
40490;BME280;26196;52.302;10.572;2023-11-19T20:49:22;99758.03;;;14.52;64.67
40490;BME280;26196;52.302;10.572;2023-11-19T20:53:22;99687.47;;;14.11;64.45
40490;BME280;26196;52.302;10.572;2023-11-19T20:57:23;99727.88;;;14.41;63.94
40490;BME280;26196;52.302;10.572;2023-11-19T21:01:23;99681.28;;;14.12;64.48
40490;BME280;26196;52.302;10.572;2023-11-19T21:05:23;99688.16;;;14.14;65.02
40490;BME280;26196;52.302;10.572;2023-11-19T21:09:24;99750.03;;;14.55;64.79
40490;BME280;26196;52.302;10.572;2023-11-19T21:13:24;99733.66;;;14.48;64.71